Parkway, Georgia
Current Conditions -  °F | °C
As of 3:53 PM on Tuesday 21 Oct 2014 (Local Time) from KPDK Reporting Station
Few Clouds Few Clouds  
Wind Chill: 73°   Ceiling: Unl
Heat Index: 73°   Visibility: 10mi
Dew Point: 50°   Wind: 8mph
Humidity: 44%   Direction: 300°WNW
Pressure: 29.95"   Gusts: 23mph
Location:  33.9742°N, 84.235°W
Report Text: KPDK 211953Z 30007G20KT 270V340 10SM FEW048 23/10 A2995 RMK AO2 SLP137 T02280100
Loading
Personal Weather Stations






























Interactive Weather Map
Tropical Storm Tracking
New forecast layout! Learn more

10-Day Weather Forecast

Advertisements
Track Severe Weather on mobile